sensor_id;sensor_type;location;lat;lon;timestamp;P1;durP1;ratioP1;P2;durP2;ratioP2
5277;SDS011;2662;51.194;6.614;2022-09-09T00:01:36;1.70;;;0.90;;
5277;SDS011;2662;51.194;6.614;2022-09-09T00:04:12;1.10;;;1.00;;
5277;SDS011;2662;51.194;6.614;2022-09-09T00:06:48;2.10;;;1.30;;
5277;SDS011;2662;51.194;6.614;2022-09-09T00:09:21;6.20;;;1.37;;
5277;SDS011;2662;51.194;6.614;2022-09-09T00:11:54;1.87;;;1.20;;
5277;SDS011;2662;51.194;6.614;2022-09-09T00:14:31;3.27;;;1.20;;
5277;SDS011;2662;51.194;6.614;2022-09-09T00:17:04;1.47;;;1.20;;
5277;SDS011;2662;51.194;6.614;2022-09-09T00:19:39;1.90;;;1.10;;
5277;SDS011;2662;51.194;6.614;2022-09-09T00:22:16;8.87;;;1.40;;
5277;SDS011;2662;51.194;6.614;2022-09-09T00:24:45;4.90;;;1.00;;
5277;SDS011;2662;51.194;6.614;2022-09-09T00:27:16;3.40;;;1.40;;
5277;SDS011;2662;51.194;6.614;2022-09-09T00:29:51;4.00;;;1.50;;
5277;SDS011;2662;51.194;6.614;2022-09-09T00:32:20;2.53;;;1.77;;
5277;SDS011;2662;51.194;6.614;2022-09-09T00:34:50;1.70;;;0.97;;
5277;SDS011;2662;51.194;6.614;2022-09-09T00:37:20;3.87;;;1.27;;
5277;SDS011;2662;51.194;6.614;2022-09-09T00:39:50;3.50;;;1.40;;
5277;SDS011;2662;51.194;6.614;2022-09-09T00:42:24;4.37;;;1.30;;
5277;SDS011;2662;51.194;6.614;2022-09-09T00:44:53;3.23;;;1.03;;
5277;SDS011;2662;51.194;6.614;2022-09-09T00:47:38;4.97;;;1.10;;
5277;SDS011;2662;51.194;6.614;2022-09-09T00:50:14;2.10;;;1.00;;
5277;SDS011;2662;51.194;6.614;2022-09-09T00:52:57;3.70;;;1.10;;
5277;SDS011;2662;51.194;6.614;2022-09-09T00:55:33;5.20;;;1.40;;
5277;SDS011;2662;51.194;6.614;2022-09-09T00:58:06;4.37;;;1.53;;
5277;SDS011;2662;51.194;6.614;2022-09-09T01:00:35;1.63;;;1.20;;
5277;SDS011;2662;51.194;6.614;2022-09-09T01:03:19;1.07;;;1.00;;
5277;SDS011;2662;51.194;6.614;2022-09-09T01:05:57;1.33;;;0.83;;
5277;SDS011;2662;51.194;6.614;2022-09-09T01:08:35;4.20;;;1.20;;
5277;SDS011;2662;51.194;6.614;2022-09-09T01:11:16;1.13;;;1.03;;
5277;SDS011;2662;51.194;6.614;2022-09-09T01:13:48;2.13;;;1.40;;
5277;SDS011;2662;51.194;6.614;2022-09-09T01:16:19;3.00;;;1.00;;
5277;SDS011;2662;51.194;6.614;2022-09-09T01:18:48;1.90;;;1.10;;
5277;SDS011;2662;51.194;6.614;2022-09-09T01:21:20;4.60;;;1.13;;
5277;SDS011;2662;51.194;6.614;2022-09-09T01:24:10;3.83;;;1.30;;
5277;SDS011;2662;51.194;6.614;2022-09-09T01:26:49;1.87;;;1.00;;
5277;SDS011;2662;51.194;6.614;2022-09-09T01:29:18;2.47;;;1.23;;
5277;SDS011;2662;51.194;6.614;2022-09-09T01:31:52;3.73;;;1.60;;
5277;SDS011;2662;51.194;6.614;2022-09-09T01:34:21;3.37;;;1.37;;
5277;SDS011;2662;51.194;6.614;2022-09-09T01:36:49;3.27;;;1.23;;
5277;SDS011;2662;51.194;6.614;2022-09-09T01:39:22;3.70;;;1.37;;
5277;SDS011;2662;51.194;6.614;2022-09-09T01:41:50;1.67;;;1.40;;
5277;SDS011;2662;51.194;6.614;2022-09-09T01:44:17;1.60;;;1.40;;
5277;SDS011;2662;51.194;6.614;2022-09-09T01:46:45;5.17;;;1.20;;
5277;SDS011;2662;51.194;6.614;2022-09-09T01:49:12;5.77;;;1.83;;
5277;SDS011;2662;51.194;6.614;2022-09-09T01:51:39;4.37;;;1.73;;
5277;SDS011;2662;51.194;6.614;2022-09-09T01:54:07;7.63;;;1.10;;
5277;SDS011;2662;51.194;6.614;2022-09-09T01:56:36;5.53;;;1.30;;
5277;SDS011;2662;51.194;6.614;2022-09-09T01:59:14;2.97;;;1.30;;
5277;SDS011;2662;51.194;6.614;2022-09-09T02:01:56;5.93;;;1.07;;
5277;SDS011;2662;51.194;6.614;2022-09-09T02:04:35;1.70;;;1.10;;
5277;SDS011;2662;51.194;6.614;2022-09-09T02:07:06;1.90;;;1.00;;
5277;SDS011;2662;51.194;6.614;2022-09-09T02:09:44;1.90;;;1.00;;
5277;SDS011;2662;51.194;6.614;2022-09-09T02:12:18;7.83;;;1.60;;
5277;SDS011;2662;51.194;6.614;2022-09-09T02:14:49;9.53;;;1.10;;
5277;SDS011;2662;51.194;6.614;2022-09-09T02:17:19;2.13;;;0.97;;
5277;SDS011;2662;51.194;6.614;2022-09-09T02:19:52;3.13;;;1.47;;
5277;SDS011;2662;51.194;6.614;2022-09-09T02:22:24;1.80;;;1.17;;
5277;SDS011;2662;51.194;6.614;2022-09-09T02:24:54;7.10;;;1.40;;
5277;SDS011;2662;51.194;6.614;2022-09-09T02:27:24;1.57;;;0.93;;
5277;SDS011;2662;51.194;6.614;2022-09-09T02:29:53;5.90;;;1.60;;
5277;SDS011;2662;51.194;6.614;2022-09-09T02:32:22;4.23;;;1.30;;
5277;SDS011;2662;51.194;6.614;2022-09-09T02:34:51;6.00;;;1.53;;
5277;SDS011;2662;51.194;6.614;2022-09-09T02:37:23;5.60;;;1.50;;
5277;SDS011;2662;51.194;6.614;2022-09-09T02:39:55;6.53;;;1.40;;
5277;SDS011;2662;51.194;6.614;2022-09-09T02:42:22;6.77;;;1.20;;
5277;SDS011;2662;51.194;6.614;2022-09-09T02:44:48;6.23;;;1.40;;
5277;SDS011;2662;51.194;6.614;2022-09-09T02:47:26;4.23;;;1.60;;
5277;SDS011;2662;51.194;6.614;2022-09-09T02:50:02;7.10;;;1.50;;
5277;SDS011;2662;51.194;6.614;2022-09-09T02:52:36;7.17;;;1.47;;
5277;SDS011;2662;51.194;6.614;2022-09-09T02:55:12;2.63;;;1.07;;
5277;SDS011;2662;51.194;6.614;2022-09-09T02:57:49;2.90;;;1.00;;
5277;SDS011;2662;51.194;6.614;2022-09-09T03:00:22;2.23;;;1.53;;
5277;SDS011;2662;51.194;6.614;2022-09-09T03:02:51;2.97;;;1.47;;
5277;SDS011;2662;51.194;6.614;2022-09-09T03:05:19;6.97;;;1.70;;
5277;SDS011;2662;51.194;6.614;2022-09-09T03:07:46;4.60;;;1.33;;
5277;SDS011;2662;51.194;6.614;2022-09-09T03:10:14;7.80;;;1.77;;
5277;SDS011;2662;51.194;6.614;2022-09-09T03:12:41;3.27;;;1.13;;
5277;SDS011;2662;51.194;6.614;2022-09-09T03:15:08;9.63;;;1.67;;
5277;SDS011;2662;51.194;6.614;2022-09-09T03:17:35;8.50;;;1.30;;
5277;SDS011;2662;51.194;6.614;2022-09-09T03:20:04;5.43;;;1.40;;
5277;SDS011;2662;51.194;6.614;2022-09-09T03:22:32;1.73;;;1.00;;
5277;SDS011;2662;51.194;6.614;2022-09-09T03:24:59;8.30;;;1.57;;
5277;SDS011;2662;51.194;6.614;2022-09-09T03:27:27;4.43;;;1.20;;
5277;SDS011;2662;51.194;6.614;2022-09-09T03:29:54;3.33;;;1.60;;
5277;SDS011;2662;51.194;6.614;2022-09-09T03:32:21;3.43;;;1.50;;
5277;SDS011;2662;51.194;6.614;2022-09-09T03:34:50;14.10;;;1.40;;
5277;SDS011;2662;51.194;6.614;2022-09-09T03:37:19;6.70;;;1.90;;
5277;SDS011;2662;51.194;6.614;2022-09-09T03:39:47;3.03;;;1.13;;
5277;SDS011;2662;51.194;6.614;2022-09-09T03:42:14;4.30;;;1.70;;
5277;SDS011;2662;51.194;6.614;2022-09-09T03:44:43;4.90;;;1.53;;
5277;SDS011;2662;51.194;6.614;2022-09-09T03:47:13;4.93;;;1.40;;
5277;SDS011;2662;51.194;6.614;2022-09-09T03:49:40;4.43;;;1.40;;
5277;SDS011;2662;51.194;6.614;2022-09-09T03:52:13;4.80;;;1.70;;
5277;SDS011;2662;51.194;6.614;2022-09-09T03:54:41;4.77;;;1.53;;
5277;SDS011;2662;51.194;6.614;2022-09-09T03:57:08;6.03;;;1.90;;
5277;SDS011;2662;51.194;6.614;2022-09-09T03:59:36;2.80;;;1.50;;
5277;SDS011;2662;51.194;6.614;2022-09-09T04:02:05;6.30;;;1.50;;
5277;SDS011;2662;51.194;6.614;2022-09-09T04:04:32;8.37;;;1.70;;
5277;SDS011;2662;51.194;6.614;2022-09-09T04:06:59;8.10;;;1.67;;
5277;SDS011;2662;51.194;6.614;2022-09-09T04:09:26;4.43;;;1.50;;
5277;SDS011;2662;51.194;6.614;2022-09-09T04:11:54;9.17;;;1.80;;
5277;SDS011;2662;51.194;6.614;2022-09-09T04:14:20;3.87;;;1.50;;
5277;SDS011;2662;51.194;6.614;2022-09-09T04:16:47;8.40;;;2.20;;
5277;SDS011;2662;51.194;6.614;2022-09-09T04:19:14;3.13;;;1.60;;
5277;SDS011;2662;51.194;6.614;2022-09-09T04:21:41;7.67;;;1.60;;
5277;SDS011;2662;51.194;6.614;2022-09-09T04:24:08;9.10;;;2.10;;
5277;SDS011;2662;51.194;6.614;2022-09-09T04:26:35;6.10;;;1.80;;
5277;SDS011;2662;51.194;6.614;2022-09-09T04:29:04;6.53;;;2.23;;
5277;SDS011;2662;51.194;6.614;2022-09-09T04:31:32;8.03;;;1.70;;
5277;SDS011;2662;51.194;6.614;2022-09-09T04:33:59;6.00;;;1.93;;
5277;SDS011;2662;51.194;6.614;2022-09-09T04:36:30;9.00;;;1.90;;
5277;SDS011;2662;51.194;6.614;2022-09-09T04:38:57;4.70;;;1.90;;
5277;SDS011;2662;51.194;6.614;2022-09-09T04:41:24;9.87;;;1.83;;
5277;SDS011;2662;51.194;6.614;2022-09-09T04:43:51;8.20;;;1.97;;
5277;SDS011;2662;51.194;6.614;2022-09-09T04:46:19;3.50;;;1.80;;
5277;SDS011;2662;51.194;6.614;2022-09-09T04:48:48;11.57;;;2.03;;
5277;SDS011;2662;51.194;6.614;2022-09-09T04:51:15;9.10;;;1.93;;
5277;SDS011;2662;51.194;6.614;2022-09-09T04:53:42;6.03;;;1.90;;
5277;SDS011;2662;51.194;6.614;2022-09-09T04:56:09;7.40;;;1.70;;
5277;SDS011;2662;51.194;6.614;2022-09-09T04:58:37;9.33;;;1.60;;
5277;SDS011;2662;51.194;6.614;2022-09-09T05:01:06;6.63;;;1.80;;
5277;SDS011;2662;51.194;6.614;2022-09-09T05:03:36;17.03;;;1.90;;
5277;SDS011;2662;51.194;6.614;2022-09-09T05:06:04;6.30;;;1.90;;
5277;SDS011;2662;51.194;6.614;2022-09-09T05:08:33;7.40;;;1.60;;
5277;SDS011;2662;51.194;6.614;2022-09-09T05:11:00;8.30;;;1.90;;
5277;SDS011;2662;51.194;6.614;2022-09-09T05:13:27;4.33;;;1.80;;
5277;SDS011;2662;51.194;6.614;2022-09-09T05:15:54;3.13;;;1.50;;
5277;SDS011;2662;51.194;6.614;2022-09-09T05:18:21;5.53;;;1.53;;
5277;SDS011;2662;51.194;6.614;2022-09-09T05:20:49;5.50;;;1.60;;
5277;SDS011;2662;51.194;6.614;2022-09-09T05:23:17;6.63;;;1.97;;
5277;SDS011;2662;51.194;6.614;2022-09-09T05:25:43;3.77;;;1.77;;
5277;SDS011;2662;51.194;6.614;2022-09-09T05:28:21;5.67;;;1.50;;
5277;SDS011;2662;51.194;6.614;2022-09-09T05:30:54;6.57;;;1.70;;
5277;SDS011;2662;51.194;6.614;2022-09-09T05:33:22;13.00;;;2.13;;
5277;SDS011;2662;51.194;6.614;2022-09-09T05:35:55;11.73;;;1.70;;
5277;SDS011;2662;51.194;6.614;2022-09-09T05:38:23;9.83;;;2.20;;
5277;SDS011;2662;51.194;6.614;2022-09-09T05:40:50;13.20;;;2.10;;
5277;SDS011;2662;51.194;6.614;2022-09-09T05:43:17;12.50;;;1.87;;
5277;SDS011;2662;51.194;6.614;2022-09-09T05:45:44;5.00;;;1.33;;
5277;SDS011;2662;51.194;6.614;2022-09-09T05:48:12;7.80;;;1.70;;
5277;SDS011;2662;51.194;6.614;2022-09-09T05:50:40;10.33;;;2.03;;
5277;SDS011;2662;51.194;6.614;2022-09-09T05:53:09;5.80;;;2.07;;
5277;SDS011;2662;51.194;6.614;2022-09-09T05:55:36;9.60;;;2.10;;
5277;SDS011;2662;51.194;6.614;2022-09-09T05:58:02;8.53;;;1.50;;
5277;SDS011;2662;51.194;6.614;2022-09-09T06:00:29;7.40;;;1.90;;
5277;SDS011;2662;51.194;6.614;2022-09-09T06:02:57;5.33;;;1.70;;
5277;SDS011;2662;51.194;6.614;2022-09-09T06:05:23;5.80;;;1.60;;
5277;SDS011;2662;51.194;6.614;2022-09-09T06:07:53;10.20;;;2.00;;
5277;SDS011;2662;51.194;6.614;2022-09-09T06:10:22;7.60;;;1.30;;
5277;SDS011;2662;51.194;6.614;2022-09-09T06:12:48;7.13;;;1.60;;
5277;SDS011;2662;51.194;6.614;2022-09-09T06:15:19;8.67;;;2.13;;
5277;SDS011;2662;51.194;6.614;2022-09-09T06:17:46;8.10;;;2.20;;
5277;SDS011;2662;51.194;6.614;2022-09-09T06:20:14;9.53;;;1.67;;
5277;SDS011;2662;51.194;6.614;2022-09-09T06:22:41;6.70;;;1.70;;
5277;SDS011;2662;51.194;6.614;2022-09-09T06:25:08;5.37;;;1.60;;
5277;SDS011;2662;51.194;6.614;2022-09-09T06:27:37;10.90;;;1.93;;
5277;SDS011;2662;51.194;6.614;2022-09-09T06:30:04;5.03;;;1.40;;
5277;SDS011;2662;51.194;6.614;2022-09-09T06:32:31;4.87;;;1.40;;
5277;SDS011;2662;51.194;6.614;2022-09-09T06:34:59;6.67;;;1.70;;
5277;SDS011;2662;51.194;6.614;2022-09-09T06:37:27;4.67;;;1.30;;
5277;SDS011;2662;51.194;6.614;2022-09-09T06:39:54;3.87;;;1.33;;
5277;SDS011;2662;51.194;6.614;2022-09-09T06:42:21;7.10;;;1.50;;
5277;SDS011;2662;51.194;6.614;2022-09-09T06:44:49;6.13;;;1.20;;
5277;SDS011;2662;51.194;6.614;2022-09-09T06:47:17;4.40;;;1.27;;
5277;SDS011;2662;51.194;6.614;2022-09-09T06:49:44;9.57;;;1.87;;
5277;SDS011;2662;51.194;6.614;2022-09-09T06:52:10;6.00;;;1.53;;
5277;SDS011;2662;51.194;6.614;2022-09-09T06:54:38;5.47;;;1.67;;
5277;SDS011;2662;51.194;6.614;2022-09-09T06:57:04;7.80;;;1.57;;
5277;SDS011;2662;51.194;6.614;2022-09-09T06:59:32;3.90;;;1.40;;
5277;SDS011;2662;51.194;6.614;2022-09-09T07:02:01;3.13;;;1.07;;
5277;SDS011;2662;51.194;6.614;2022-09-09T07:04:28;5.30;;;1.10;;
5277;SDS011;2662;51.194;6.614;2022-09-09T07:06:54;4.93;;;1.37;;
5277;SDS011;2662;51.194;6.614;2022-09-09T07:09:21;4.13;;;0.93;;
5277;SDS011;2662;51.194;6.614;2022-09-09T07:11:49;20.10;;;1.53;;
5277;SDS011;2662;51.194;6.614;2022-09-09T07:14:17;9.53;;;1.57;;
5277;SDS011;2662;51.194;6.614;2022-09-09T07:16:45;5.30;;;1.60;;
5277;SDS011;2662;51.194;6.614;2022-09-09T07:19:13;9.80;;;1.50;;
5277;SDS011;2662;51.194;6.614;2022-09-09T07:21:40;5.57;;;1.47;;
5277;SDS011;2662;51.194;6.614;2022-09-09T07:24:08;9.43;;;1.67;;
5277;SDS011;2662;51.194;6.614;2022-09-09T07:26:37;7.47;;;1.10;;
5277;SDS011;2662;51.194;6.614;2022-09-09T07:29:05;3.40;;;1.27;;
5277;SDS011;2662;51.194;6.614;2022-09-09T07:31:32;3.47;;;1.33;;
5277;SDS011;2662;51.194;6.614;2022-09-09T07:34:01;5.97;;;1.37;;
5277;SDS011;2662;51.194;6.614;2022-09-09T07:36:36;2.93;;;1.10;;
5277;SDS011;2662;51.194;6.614;2022-09-09T07:39:06;4.77;;;1.50;;
5277;SDS011;2662;51.194;6.614;2022-09-09T07:41:35;5.57;;;1.33;;
5277;SDS011;2662;51.194;6.614;2022-09-09T07:44:05;6.47;;;1.50;;
5277;SDS011;2662;51.194;6.614;2022-09-09T07:46:33;6.73;;;1.30;;
5277;SDS011;2662;51.194;6.614;2022-09-09T07:49:02;4.80;;;1.33;;
5277;SDS011;2662;51.194;6.614;2022-09-09T07:51:29;5.50;;;1.60;;
5277;SDS011;2662;51.194;6.614;2022-09-09T07:54:00;3.33;;;1.20;;
5277;SDS011;2662;51.194;6.614;2022-09-09T07:56:29;7.53;;;1.67;;
5277;SDS011;2662;51.194;6.614;2022-09-09T07:58:57;5.77;;;1.47;;
5277;SDS011;2662;51.194;6.614;2022-09-09T08:01:25;6.43;;;1.63;;
5277;SDS011;2662;51.194;6.614;2022-09-09T08:03:54;5.50;;;1.20;;
5277;SDS011;2662;51.194;6.614;2022-09-09T08:06:24;4.90;;;1.33;;
5277;SDS011;2662;51.194;6.614;2022-09-09T08:08:51;4.13;;;1.40;;
5277;SDS011;2662;51.194;6.614;2022-09-09T08:11:21;5.80;;;1.60;;
5277;SDS011;2662;51.194;6.614;2022-09-09T08:13:49;9.70;;;1.67;;
5277;SDS011;2662;51.194;6.614;2022-09-09T08:16:18;3.27;;;1.10;;
5277;SDS011;2662;51.194;6.614;2022-09-09T08:18:46;9.43;;;1.57;;
5277;SDS011;2662;51.194;6.614;2022-09-09T08:21:15;3.17;;;1.27;;
5277;SDS011;2662;51.194;6.614;2022-09-09T08:23:44;2.70;;;1.20;;
5277;SDS011;2662;51.194;6.614;2022-09-09T08:26:13;3.77;;;1.20;;
5277;SDS011;2662;51.194;6.614;2022-09-09T08:28:43;9.30;;;1.43;;
5277;SDS011;2662;51.194;6.614;2022-09-09T08:31:11;3.43;;;1.27;;
5277;SDS011;2662;51.194;6.614;2022-09-09T08:33:39;8.43;;;1.27;;
5277;SDS011;2662;51.194;6.614;2022-09-09T08:36:08;4.80;;;1.30;;
5277;SDS011;2662;51.194;6.614;2022-09-09T08:38:36;2.40;;;1.17;;
5277;SDS011;2662;51.194;6.614;2022-09-09T08:41:10;5.33;;;1.10;;
5277;SDS011;2662;51.194;6.614;2022-09-09T08:43:58;4.03;;;1.30;;
5277;SDS011;2662;51.194;6.614;2022-09-09T08:46:29;6.83;;;1.73;;
5277;SDS011;2662;51.194;6.614;2022-09-09T08:49:02;4.60;;;1.17;;
5277;SDS011;2662;51.194;6.614;2022-09-09T08:51:37;8.13;;;1.30;;
5277;SDS011;2662;51.194;6.614;2022-09-09T08:54:04;4.37;;;1.20;;
5277;SDS011;2662;51.194;6.614;2022-09-09T08:56:32;2.10;;;0.90;;
5277;SDS011;2662;51.194;6.614;2022-09-09T08:59:01;4.33;;;1.17;;
5277;SDS011;2662;51.194;6.614;2022-09-09T09:01:34;3.30;;;1.10;;
5277;SDS011;2662;51.194;6.614;2022-09-09T09:04:19;18.40;;;1.57;;
5277;SDS011;2662;51.194;6.614;2022-09-09T09:07:00;6.37;;;1.10;;
5277;SDS011;2662;51.194;6.614;2022-09-09T09:09:31;2.80;;;1.10;;
5277;SDS011;2662;51.194;6.614;2022-09-09T09:12:10;4.40;;;1.40;;
5277;SDS011;2662;51.194;6.614;2022-09-09T09:14:43;8.20;;;1.17;;
5277;SDS011;2662;51.194;6.614;2022-09-09T09:17:14;5.03;;;1.40;;
5277;SDS011;2662;51.194;6.614;2022-09-09T09:19:44;4.97;;;1.60;;
5277;SDS011;2662;51.194;6.614;2022-09-09T09:22:14;2.40;;;1.17;;
5277;SDS011;2662;51.194;6.614;2022-09-09T09:24:49;3.37;;;1.00;;
5277;SDS011;2662;51.194;6.614;2022-09-09T09:27:20;4.20;;;1.13;;
5277;SDS011;2662;51.194;6.614;2022-09-09T09:29:55;3.60;;;1.10;;
5277;SDS011;2662;51.194;6.614;2022-09-09T09:32:24;1.70;;;0.80;;
5277;SDS011;2662;51.194;6.614;2022-09-09T09:34:54;8.60;;;1.10;;
5277;SDS011;2662;51.194;6.614;2022-09-09T09:37:26;3.43;;;1.00;;
5277;SDS011;2662;51.194;6.614;2022-09-09T09:39:55;1.80;;;1.00;;
5277;SDS011;2662;51.194;6.614;2022-09-09T09:42:22;1.17;;;0.80;;
5277;SDS011;2662;51.194;6.614;2022-09-09T09:44:49;7.50;;;1.50;;
5277;SDS011;2662;51.194;6.614;2022-09-09T09:47:17;3.93;;;1.20;;
5277;SDS011;2662;51.194;6.614;2022-09-09T09:49:52;3.73;;;1.10;;
5277;SDS011;2662;51.194;6.614;2022-09-09T09:52:21;4.07;;;1.10;;
5277;SDS011;2662;51.194;6.614;2022-09-09T09:54:49;5.63;;;0.80;;
5277;SDS011;2662;51.194;6.614;2022-09-09T09:57:17;4.27;;;1.17;;
5277;SDS011;2662;51.194;6.614;2022-09-09T09:59:49;5.47;;;1.00;;
5277;SDS011;2662;51.194;6.614;2022-09-09T10:02:36;4.73;;;1.00;;
5277;SDS011;2662;51.194;6.614;2022-09-09T10:05:06;3.00;;;0.93;;
5277;SDS011;2662;51.194;6.614;2022-09-09T10:07:39;8.80;;;0.90;;
5277;SDS011;2662;51.194;6.614;2022-09-09T10:10:18;3.30;;;1.13;;
5277;SDS011;2662;51.194;6.614;2022-09-09T10:12:53;3.80;;;1.30;;
5277;SDS011;2662;51.194;6.614;2022-09-09T10:15:35;3.00;;;1.17;;
5277;SDS011;2662;51.194;6.614;2022-09-09T10:18:15;2.40;;;0.90;;
5277;SDS011;2662;51.194;6.614;2022-09-09T10:20:55;4.30;;;1.13;;
5277;SDS011;2662;51.194;6.614;2022-09-09T10:23:34;2.43;;;0.80;;
5277;SDS011;2662;51.194;6.614;2022-09-09T10:26:12;8.10;;;1.20;;
5277;SDS011;2662;51.194;6.614;2022-09-09T10:28:54;5.77;;;1.33;;
5277;SDS011;2662;51.194;6.614;2022-09-09T10:31:32;6.80;;;1.20;;
5277;SDS011;2662;51.194;6.614;2022-09-09T10:34:16;2.67;;;0.80;;
5277;SDS011;2662;51.194;6.614;2022-09-09T10:36:50;3.23;;;0.90;;
5277;SDS011;2662;51.194;6.614;2022-09-09T10:39:19;2.40;;;0.90;;
5277;SDS011;2662;51.194;6.614;2022-09-09T10:41:57;5.90;;;0.90;;
5277;SDS011;2662;51.194;6.614;2022-09-09T10:44:33;3.00;;;1.00;;
5277;SDS011;2662;51.194;6.614;2022-09-09T10:47:14;1.77;;;0.93;;
5277;SDS011;2662;51.194;6.614;2022-09-09T10:50:18;1.23;;;0.80;;
5277;SDS011;2662;51.194;6.614;2022-09-09T10:53:11;5.80;;;0.97;;
5277;SDS011;2662;51.194;6.614;2022-09-09T10:55:45;1.87;;;1.00;;
5277;SDS011;2662;51.194;6.614;2022-09-09T10:58:20;1.30;;;0.80;;
5277;SDS011;2662;51.194;6.614;2022-09-09T11:00:53;7.20;;;1.23;;
5277;SDS011;2662;51.194;6.614;2022-09-09T11:03:23;1.30;;;0.93;;
5277;SDS011;2662;51.194;6.614;2022-09-09T11:05:56;1.00;;;0.73;;
5277;SDS011;2662;51.194;6.614;2022-09-09T11:08:26;1.57;;;0.97;;
5277;SDS011;2662;51.194;6.614;2022-09-09T11:10:57;4.40;;;0.70;;
5277;SDS011;2662;51.194;6.614;2022-09-09T11:13:29;2.80;;;0.67;;
5277;SDS011;2662;51.194;6.614;2022-09-09T11:16:16;1.47;;;0.77;;
5277;SDS011;2662;51.194;6.614;2022-09-09T11:18:50;1.43;;;0.70;;
5277;SDS011;2662;51.194;6.614;2022-09-09T11:21:26;3.20;;;0.90;;
5277;SDS011;2662;51.194;6.614;2022-09-09T11:23:56;5.03;;;1.30;;
5277;SDS011;2662;51.194;6.614;2022-09-09T11:26:28;1.43;;;0.80;;
5277;SDS011;2662;51.194;6.614;2022-09-09T11:29:02;5.83;;;2.20;;
5277;SDS011;2662;51.194;6.614;2022-09-09T11:31:42;5.07;;;0.90;;
5277;SDS011;2662;51.194;6.614;2022-09-09T11:37:06;1.03;;;0.70;;
5277;SDS011;2662;51.194;6.614;2022-09-09T11:39:50;3.23;;;1.00;;
5277;SDS011;2662;51.194;6.614;2022-09-09T11:42:30;5.10;;;1.07;;
5277;SDS011;2662;51.194;6.614;2022-09-09T11:44:57;5.10;;;1.00;;
5277;SDS011;2662;51.194;6.614;2022-09-09T11:47:52;6.20;;;1.10;;
5277;SDS011;2662;51.194;6.614;2022-09-09T11:50:28;4.53;;;0.80;;
5277;SDS011;2662;51.194;6.614;2022-09-09T11:55:47;3.20;;;1.10;;
5277;SDS011;2662;51.194;6.614;2022-09-09T11:58:25;4.80;;;0.90;;
5277;SDS011;2662;51.194;6.614;2022-09-09T12:00:54;1.17;;;0.90;;
5277;SDS011;2662;51.194;6.614;2022-09-09T12:03:34;3.13;;;0.80;;
5277;SDS011;2662;51.194;6.614;2022-09-09T12:06:09;1.10;;;0.90;;
5277;SDS011;2662;51.194;6.614;2022-09-09T12:08:41;4.63;;;1.13;;
5277;SDS011;2662;51.194;6.614;2022-09-09T12:11:22;1.40;;;0.80;;
5277;SDS011;2662;51.194;6.614;2022-09-09T12:13:52;2.63;;;1.07;;
5277;SDS011;2662;51.194;6.614;2022-09-09T12:16:27;4.40;;;0.90;;
5277;SDS011;2662;51.194;6.614;2022-09-09T12:19:03;3.50;;;1.07;;
5277;SDS011;2662;51.194;6.614;2022-09-09T12:21:33;2.43;;;1.17;;
5277;SDS011;2662;51.194;6.614;2022-09-09T12:24:07;1.17;;;0.70;;
5277;SDS011;2662;51.194;6.614;2022-09-09T12:26:36;2.47;;;0.77;;
5277;SDS011;2662;51.194;6.614;2022-09-09T12:29:12;7.73;;;2.70;;
5277;SDS011;2662;51.194;6.614;2022-09-09T12:31:48;4.90;;;1.43;;
5277;SDS011;2662;51.194;6.614;2022-09-09T12:34:25;1.47;;;0.83;;
5277;SDS011;2662;51.194;6.614;2022-09-09T12:37:06;1.63;;;0.70;;
5277;SDS011;2662;51.194;6.614;2022-09-09T12:39:47;10.50;;;0.90;;
5277;SDS011;2662;51.194;6.614;2022-09-09T12:42:18;3.30;;;0.97;;
5277;SDS011;2662;51.194;6.614;2022-09-09T12:44:50;4.00;;;0.97;;
5277;SDS011;2662;51.194;6.614;2022-09-09T12:47:18;3.17;;;0.90;;
5277;SDS011;2662;51.194;6.614;2022-09-09T12:49:48;2.47;;;1.23;;
5277;SDS011;2662;51.194;6.614;2022-09-09T12:52:18;4.83;;;1.30;;
5277;SDS011;2662;51.194;6.614;2022-09-09T12:54:53;2.47;;;1.00;;
5277;SDS011;2662;51.194;6.614;2022-09-09T12:57:19;5.07;;;1.20;;
5277;SDS011;2662;51.194;6.614;2022-09-09T12:59:50;3.17;;;1.10;;
5277;SDS011;2662;51.194;6.614;2022-09-09T13:02:19;8.03;;;1.00;;
5277;SDS011;2662;51.194;6.614;2022-09-09T13:04:48;2.20;;;1.10;;
5277;SDS011;2662;51.194;6.614;2022-09-09T13:07:16;5.10;;;0.90;;
5277;SDS011;2662;51.194;6.614;2022-09-09T13:09:44;3.43;;;1.23;;
5277;SDS011;2662;51.194;6.614;2022-09-09T13:12:15;5.90;;;1.40;;
5277;SDS011;2662;51.194;6.614;2022-09-09T13:14:45;2.90;;;1.00;;
5277;SDS011;2662;51.194;6.614;2022-09-09T13:17:18;3.20;;;1.20;;
5277;SDS011;2662;51.194;6.614;2022-09-09T13:19:47;4.87;;;1.13;;
5277;SDS011;2662;51.194;6.614;2022-09-09T13:22:19;8.80;;;1.10;;
5277;SDS011;2662;51.194;6.614;2022-09-09T13:24:58;3.43;;;1.00;;
5277;SDS011;2662;51.194;6.614;2022-09-09T13:27:30;5.27;;;0.80;;
5277;SDS011;2662;51.194;6.614;2022-09-09T13:29:59;3.63;;;1.13;;
5277;SDS011;2662;51.194;6.614;2022-09-09T13:32:27;6.67;;;1.30;;
5277;SDS011;2662;51.194;6.614;2022-09-09T13:34:57;1.83;;;0.90;;
5277;SDS011;2662;51.194;6.614;2022-09-09T13:37:26;12.33;;;1.13;;
5277;SDS011;2662;51.194;6.614;2022-09-09T13:39:56;2.93;;;1.40;;
5277;SDS011;2662;51.194;6.614;2022-09-09T13:42:24;4.23;;;0.97;;
5277;SDS011;2662;51.194;6.614;2022-09-09T13:44:54;1.80;;;0.77;;
5277;SDS011;2662;51.194;6.614;2022-09-09T13:47:26;2.20;;;0.80;;
5277;SDS011;2662;51.194;6.614;2022-09-09T13:49:56;2.70;;;1.00;;
5277;SDS011;2662;51.194;6.614;2022-09-09T13:52:22;5.53;;;0.73;;
5277;SDS011;2662;51.194;6.614;2022-09-09T13:54:51;2.43;;;0.70;;
5277;SDS011;2662;51.194;6.614;2022-09-09T13:57:20;1.63;;;0.77;;
5277;SDS011;2662;51.194;6.614;2022-09-09T13:59:48;3.00;;;0.90;;
5277;SDS011;2662;51.194;6.614;2022-09-09T14:02:16;1.23;;;0.90;;
5277;SDS011;2662;51.194;6.614;2022-09-09T14:04:43;1.80;;;0.93;;
5277;SDS011;2662;51.194;6.614;2022-09-09T14:07:11;1.87;;;1.30;;
5277;SDS011;2662;51.194;6.614;2022-09-09T14:09:39;6.43;;;1.33;;
5277;SDS011;2662;51.194;6.614;2022-09-09T14:12:08;2.33;;;1.00;;
5277;SDS011;2662;51.194;6.614;2022-09-09T14:14:36;4.63;;;1.10;;
5277;SDS011;2662;51.194;6.614;2022-09-09T14:17:03;1.83;;;1.00;;
5277;SDS011;2662;51.194;6.614;2022-09-09T14:19:32;1.03;;;0.40;;
5277;SDS011;2662;51.194;6.614;2022-09-09T14:21:59;0.93;;;0.50;;
5277;SDS011;2662;51.194;6.614;2022-09-09T14:24:26;0.50;;;0.40;;
5277;SDS011;2662;51.194;6.614;2022-09-09T14:26:53;0.80;;;0.40;;
5277;SDS011;2662;51.194;6.614;2022-09-09T14:29:20;1.53;;;0.60;;
5277;SDS011;2662;51.194;6.614;2022-09-09T14:31:47;1.00;;;0.80;;
5277;SDS011;2662;51.194;6.614;2022-09-09T14:34:14;0.80;;;0.70;;
5277;SDS011;2662;51.194;6.614;2022-09-09T14:36:42;1.10;;;0.53;;
5277;SDS011;2662;51.194;6.614;2022-09-09T14:39:09;4.43;;;0.50;;
5277;SDS011;2662;51.194;6.614;2022-09-09T14:41:36;2.27;;;0.70;;
5277;SDS011;2662;51.194;6.614;2022-09-09T14:44:03;2.40;;;0.50;;
5277;SDS011;2662;51.194;6.614;2022-09-09T14:46:30;2.53;;;0.60;;
5277;SDS011;2662;51.194;6.614;2022-09-09T14:48:57;4.33;;;0.90;;
5277;SDS011;2662;51.194;6.614;2022-09-09T14:51:24;3.80;;;0.50;;
5277;SDS011;2662;51.194;6.614;2022-09-09T14:53:55;2.03;;;0.50;;
5277;SDS011;2662;51.194;6.614;2022-09-09T14:56:23;1.13;;;0.63;;
5277;SDS011;2662;51.194;6.614;2022-09-09T14:58:52;8.07;;;0.50;;
5277;SDS011;2662;51.194;6.614;2022-09-09T15:01:20;0.60;;;0.40;;
5277;SDS011;2662;51.194;6.614;2022-09-09T15:03:48;0.50;;;0.40;;
5277;SDS011;2662;51.194;6.614;2022-09-09T15:06:17;2.50;;;0.70;;
5277;SDS011;2662;51.194;6.614;2022-09-09T15:08:44;0.60;;;0.50;;
5277;SDS011;2662;51.194;6.614;2022-09-09T15:11:13;1.97;;;0.50;;
5277;SDS011;2662;51.194;6.614;2022-09-09T15:13:41;0.67;;;0.40;;
5277;SDS011;2662;51.194;6.614;2022-09-09T15:16:09;1.97;;;0.57;;
5277;SDS011;2662;51.194;6.614;2022-09-09T15:18:37;0.70;;;0.47;;
5277;SDS011;2662;51.194;6.614;2022-09-09T15:21:07;1.07;;;0.50;;
5277;SDS011;2662;51.194;6.614;2022-09-09T15:23:35;0.97;;;0.50;;
5277;SDS011;2662;51.194;6.614;2022-09-09T15:26:02;0.90;;;0.50;;
5277;SDS011;2662;51.194;6.614;2022-09-09T15:28:32;4.43;;;0.53;;
5277;SDS011;2662;51.194;6.614;2022-09-09T15:31:04;0.83;;;0.50;;
5277;SDS011;2662;51.194;6.614;2022-09-09T15:33:32;1.23;;;0.60;;
5277;SDS011;2662;51.194;6.614;2022-09-09T15:36:11;4.40;;;0.63;;
5277;SDS011;2662;51.194;6.614;2022-09-09T15:38:39;1.10;;;0.67;;
5277;SDS011;2662;51.194;6.614;2022-09-09T15:41:06;4.87;;;0.60;;
5277;SDS011;2662;51.194;6.614;2022-09-09T15:43:34;1.20;;;0.70;;